This is the latest recevied weather packets stored in our database for station/object WX9WTF. If no packets are shown the sender has not sent any weather packets the latest 10 day(s).
| Time | Temp. | Humidity | Pressure | Rain* | Wind** | Luminosity | Snow |
|---|---|---|---|---|---|---|---|
| 1778079500 | 13.33° C | 50% | 1019.4 hPa | 0 mm | - | 630 W/m² | - |
| 1778079197 | 12.78° C | 53% | 1019.5 hPa | 0 mm | - | 635 W/m² | - |
| 1778078894 | 12.78° C | 54% | 1019.5 hPa | 0 mm | - | 415 W/m² | - |
| 1778078591 | 12.78° C | 55% | 1019.5 hPa | 0 mm | - | 436 W/m² | - |
| 1778078289 | 12.22° C | 58% | 1019.5 hPa | 0 mm | - | 464 W/m² | - |
| 1778077986 | 12.22° C | 59% | 1019.5 hPa | 0 mm | - | 543 W/m² | - |
| 1778077684 | 12.78° C | 62% | 1019.4 hPa | 0 mm | - | 530 W/m² | - |
| 1778077382 | 12.22° C | 62% | 1019.4 hPa | 0 mm | - | 527 W/m² | - |
| 1778077081 | 11.67° C | 66% | 1019.3 hPa | 0 mm | - | 509 W/m² | - |
| 1778076778 | 11.67° C | 64% | 1019.2 hPa | 0 mm | - | 491 W/m² | - |
| 1778076475 | 11.11° C | 60% | 1019.3 hPa | 0 mm | - | 464 W/m² | - |
| 1778076172 | 11.67° C | 66% | 1018.8 hPa | 0 mm | - | 439 W/m² | - |
| 1778075869 | 11.11° C | 70% | 1019.1 hPa | 0 mm | - | 416 W/m² | - |
| 1778075565 | 10.56° C | 73% | 1019.2 hPa | 0 mm | - | 408 W/m² | - |
| 1778075262 | 10.56° C | 70% | 1019 hPa | 0 mm | - | 383 W/m² | - |
| 1778074959 | 10.56° C | 78% | 1019 hPa | 0 mm | - | 373 W/m² | - |
| 1778074656 | 10° C | 76% | 1018.8 hPa | 0 mm | - | 350 W/m² | - |
| 1778074352 | 10° C | 79% | 1018.6 hPa | 0 mm | - | 359 W/m² | - |
| 1778074049 | 10° C | 80% | 1018.6 hPa | 0 mm | - | 288 W/m² | - |
| 1778073747 | 9.44° C | 81% | 1018.6 hPa | 0 mm | - | 262 W/m² | - |
| 1778073444 | 9.44° C | 85% | 1018.5 hPa | 0 mm | - | 332 W/m² | - |
| 1778073140 | 8.89° C | 86% | 1018.4 hPa | 0 mm | - | 198 W/m² | - |
| 1778072837 | 8.89° C | 88% | 1018.6 hPa | 0 mm | - | 216 W/m² | - |
| 1778072534 | 8.33° C | 89% | 1018.7 hPa | 0 mm | - | 253 W/m² | - |
| 1778072232 | 8.33° C | 90% | 1018.4 hPa | 0 mm | - | 161 W/m² | - |
* Rain latest hour (hover to see other rain measurements)
** Current wind speed in m/s (hover to see current wind gust speed)